Time;durP1;ratioP1;P1;durP2;ratioP2;P2;SDS_P1;SDS_P2;PMS_P1;PMS_P2;Temp;Humidity;BMP_temperature;BMP_pressure;BME280_temperature;BME280_humidity;BME280_pressure;Samples;Min_cycle;Max_cycle;Signal;HPM_P1;HPM_P2
2022/11/11 00:00:04;;;;;;;161.07;81.30;;;;;;;2.80;93.09;101404.91;1649392;86;21216;-83
2022/11/11 00:03:27;;;;;;;144.90;80.53;;;;;;;2.60;93.36;101406.69;1648913;86;21247;-83
2022/11/11 00:06:52;;;;;;;138.40;76.10;;;;;;;2.80;93.57;101400.86;1648741;86;21252;-82
2022/11/11 00:10:16;;;;;;;147.20;75.65;;;;;;;2.69;93.98;101397.13;1649252;86;21774;-83
2022/11/11 00:13:39;;;;;;;134.93;70.57;;;;;;;2.69;94.09;101386.33;1648321;86;21247;-83
2022/11/11 00:25:06;;;;;;;132.40;69.80;;;;;;;2.63;92.54;101383.52;1649913;86;21220;-83
2022/11/11 00:28:30;;;;;;;129.87;70.75;;;;;;;2.86;91.40;101376.61;1713806;82;21207;-78
2022/11/11 00:35:55;;;;;;;142.10;74.97;;;;;;;2.70;91.36;101376.76;1736159;82;21209;-76
2022/11/11 00:39:17;;;;;;;132.18;71.90;;;;;;;2.68;92.01;101367.00;1738955;82;21802;-77
2022/11/11 00:42:41;;;;;;;144.10;73.25;;;;;;;2.73;91.46;101356.77;1737523;82;21162;-77
2022/11/11 00:53:30;;;;;;;125.47;69.40;;;;;;;2.70;93.30;101345.69;1737100;82;21186;-78
2022/11/11 00:56:52;;;;;;;131.20;68.95;;;;;;;2.71;94.14;101354.17;1736487;82;21209;-77
2022/11/11 01:00:10;;;;;;;131.32;72.17;;;;;;;2.85;94.97;101353.27;1736659;82;21260;-76
2022/11/11 01:03:21;;;;;;;148.28;74.92;;;;;;;2.97;94.92;101351.11;1737177;82;21210;-76
2022/11/11 01:06:25;;;;;;;141.47;74.70;;;;;;;3.02;94.75;101348.10;1737817;82;21224;-76
2022/11/11 01:09:35;;;;;;;122.15;63.28;;;;;;;3.15;94.41;101347.64;1737154;82;21696;-76
2022/11/11 01:12:39;;;;;;;110.50;58.83;;;;;;;3.28;94.05;101344.48;1736463;82;21226;-77
2022/11/11 01:15:51;;;;;;;147.50;76.00;;;;;;;3.24;93.52;101353.77;1738146;82;21189;-76
2022/11/11 01:18:56;;;;;;;136.92;68.85;;;;;;;3.24;93.52;101353.77;1737623;82;21721;-76
2022/11/11 01:22:09;;;;;;;133.15;73.33;;;;;;;3.20;93.48;101353.62;1738013;82;21166;-76
2022/11/11 01:25:13;;;;;;;130.12;68.70;;;;;;;3.27;93.30;101354.93;1736557;82;21201;-76
2022/11/11 01:28:24;;;;;;;123.53;69.90;;;;;;;3.31;93.41;101348.34;1737903;82;21134;-76
2022/11/11 01:31:28;;;;;;;129.35;66.57;;;;;;;3.42;93.44;101354.86;1737857;82;21229;-76
2022/11/11 01:34:45;;;;;;;97.92;55.12;;;;;;;3.47;92.99;101349.99;1736692;82;21217;-75
2022/11/11 01:38:09;;;;;;;96.42;57.78;;;;;;;3.49;92.87;101345.37;1736428;82;21178;-77
2022/11/11 01:41:36;;;;;;;99.10;56.45;;;;;;;3.62;92.40;101350.28;1737221;82;21664;-75
2022/11/11 01:45:00;;;;;;;104.53;56.40;;;;;;;3.67;92.37;101340.49;1737021;82;21222;-76
2022/11/11 01:52:37;;;;;;;115.08;65.90;;;;;;;3.74;91.82;101334.56;1730368;82;21190;-76
2022/11/11 01:56:00;;;;;;;127.22;67.60;;;;;;;3.81;92.44;101331.81;1737731;82;21240;-76
2022/11/11 01:59:24;;;;;;;111.05;64.42;;;;;;;3.89;92.69;101336.66;1737267;82;21214;-76
2022/11/11 02:03:03;;;;;;;113.77;66.05;;;;;;;3.84;93.47;101340.19;1738001;82;21161;-76
2022/11/11 02:06:26;;;;;;;104.72;60.63;;;;;;;3.89;93.58;101335.31;1739881;82;21142;-76
2022/11/11 02:09:53;;;;;;;111.77;58.28;;;;;;;3.89;93.59;101331.25;1737918;82;21201;-75
2022/11/11 02:17:00;;;;;;;110.37;60.73;;;;;;;3.74;94.35;101333.70;1737978;82;21214;-76
2022/11/11 02:20:30;;;;;;;109.78;60.58;;;;;;;3.66;95.08;101330.66;1737915;82;21205;-76
2022/11/11 02:24:12;;;;;;;126.07;72.50;;;;;;;3.78;94.59;101330.67;1736585;82;21233;-76
2022/11/11 02:27:35;;;;;;;117.62;65.17;;;;;;;3.88;93.92;101335.44;1736040;82;21684;-76
2022/11/11 02:30:58;;;;;;;117.37;65.10;;;;;;;3.77;93.44;101332.14;1737811;82;21735;-77
2022/11/11 02:34:21;;;;;;;103.97;57.80;;;;;;;3.73;93.26;101324.71;1737077;82;21225;-77
2022/11/11 02:37:45;;;;;;;121.67;63.52;;;;;;;3.74;93.55;101315.61;1737818;82;21166;-77
2022/11/11 02:44:57;;;;;;;107.05;62.23;;;;;;;3.75;92.93;101316.48;1737019;82;21190;-76
2022/11/11 02:48:17;;;;;;;103.45;57.80;;;;;;;3.50;93.57;101329.50;1737940;82;21173;-77
2022/11/11 02:51:42;;;;;;;104.90;55.90;;;;;;;3.64;94.01;101328.55;1737836;82;21170;-77
2022/11/11 02:55:06;;;;;;;108.55;58.38;;;;;;;3.49;94.25;101331.34;1736841;82;21205;-76
2022/11/11 02:58:29;;;;;;;112.47;64.60;;;;;;;3.50;94.51;101338.98;1737819;81;21197;-76
2022/11/11 03:01:45;;;;;;;115.92;59.10;;;;;;;3.55;94.19;101344.93;1737727;82;21158;-77
2022/11/11 03:04:55;;;;;;;107.05;58.98;;;;;;;3.57;94.13;101340.27;1737001;82;21766;-76
2022/11/11 03:08:19;;;;;;;106.12;60.17;;;;;;;3.67;93.36;101346.80;1737836;82;21163;-76
2022/11/11 03:11:41;;;;;;;96.42;58.78;;;;;;;3.49;93.64;101346.72;1737804;82;21174;-76
2022/11/11 03:15:06;;;;;;;105.85;59.75;;;;;;;3.41;93.96;101345.87;1736685;82;21221;-77
2022/11/11 03:18:28;;;;;;;99.47;57.73;;;;;;;3.40;94.79;101341.94;1737668;82;21202;-75
2022/11/11 03:21:54;;;;;;;102.07;57.33;;;;;;;3.51;94.39;101341.56;1737759;82;21218;-76
2022/11/11 03:25:37;;;;;;;98.42;56.73;;;;;;;3.59;94.57;101336.98;1736945;82;21193;-76
2022/11/11 03:29:01;;;;;;;101.25;56.80;;;;;;;3.76;94.38;101325.83;1717734;81;21778;-77
2022/11/11 03:32:25;;;;;;;103.02;58.85;;;;;;;3.73;94.54;101334.19;1706127;84;21187;-77
2022/11/11 03:35:48;;;;;;;98.62;56.68;;;;;;;3.83;94.31;101325.80;1704812;84;21283;-76
2022/11/11 03:39:13;;;;;;;101.50;60.95;;;;;;;3.76;94.29;101327.19;1705805;84;21198;-76
2022/11/11 03:42:36;;;;;;;94.17;55.88;;;;;;;4.09;94.13;101339.30;1706040;83;21210;-76
2022/11/11 03:46:01;;;;;;;93.58;54.03;;;;;;;4.00;94.40;101345.37;1704920;84;21179;-77
2022/11/11 03:49:25;;;;;;;100.42;59.10;;;;;;;4.15;94.36;101345.66;1705605;84;21218;-76
2022/11/11 03:52:49;;;;;;;93.25;55.58;;;;;;;4.06;94.18;101342.25;1706164;84;21218;-76
2022/11/11 03:56:15;;;;;;;85.38;49.50;;;;;;;4.10;95.11;101347.83;1704964;84;21216;-77
2022/11/11 03:59:39;;;;;;;86.95;54.23;;;;;;;4.10;94.60;101347.83;1705606;84;21766;-77
2022/11/11 04:10:40;;;;;;;84.07;49.23;;;;;;;4.38;92.65;101345.36;1706231;84;21197;-76
2022/11/11 04:17:49;;;;;;;94.07;50.50;;;;;;;4.32;92.84;101339.01;1706194;84;21182;-76
2022/11/11 04:32:42;;;;;;;90.38;47.43;;;;;;;4.30;93.99;101338.27;1736413;82;21186;-77
2022/11/11 04:36:02;;;;;;;87.37;48.23;;;;;;;4.62;92.94;101325.08;1736881;82;21849;-76
2022/11/11 04:43:00;;;;;;;77.25;44.30;;;;;;;4.75;92.61;101331.33;1736520;81;21195;-77
2022/11/11 04:46:24;;;;;;;84.10;44.83;;;;;;;4.88;91.71;101336.67;1736868;82;21190;-76
2022/11/11 04:49:49;;;;;;;84.77;47.73;;;;;;;4.73;92.51;101329.70;1736552;82;21738;-76
2022/11/11 04:53:09;;;;;;;84.92;48.63;;;;;;;4.58;93.23;101317.66;1738263;82;21174;-81
2022/11/11 05:00:00;;;;;;;94.35;53.13;;;;;;;4.60;94.08;101330.59;1737209;82;21233;-82
2022/11/11 05:03:24;;;;;;;97.80;57.30;;;;;;;4.74;93.22;101339.06;1738244;82;21157;-81
2022/11/11 05:10:24;;;;;;;102.70;62.30;;;;;;;4.63;95.27;101340.36;1736994;82;21213;-82
2022/11/11 05:21:19;;;;;;;114.50;70.40;;;;;;;4.95;95.09;101351.52;1738525;82;21238;-82
2022/11/11 05:28:23;;;;;;;95.32;58.42;;;;;;;4.89;95.73;101351.95;1738173;82;21166;-82
2022/11/11 05:31:47;;;;;;;95.47;57.33;;;;;;;4.83;96.12;101348.36;1704020;84;21172;-82
2022/11/11 05:35:12;;;;;;;86.20;52.67;;;;;;;4.86;96.66;101351.72;1703389;84;21188;-82
2022/11/11 05:38:35;;;;;;;74.80;46.08;;;;;;;5.06;96.78;101356.13;1704613;84;21223;-82
2022/11/11 05:41:58;;;;;;;80.55;43.83;;;;;;;5.24;96.08;101368.30;1704351;84;21180;-82
2022/11/11 05:45:22;;;;;;;74.87;41.42;;;;;;;5.44;95.58;101371.34;1703938;84;21216;-82
2022/11/11 05:52:26;;;;;;;62.80;38.10;;;;;;;5.83;95.18;101377.78;1703954;84;21224;-83
2022/11/11 05:55:49;;;;;;;63.73;37.65;;;;;;;5.67;94.94;101379.94;1702794;84;21781;-81
2022/11/11 05:59:13;;;;;;;57.40;36.08;;;;;;;5.91;94.75;101375.80;1702361;84;21172;-82
2022/11/11 06:02:38;;;;;;;62.05;36.63;;;;;;;5.78;94.98;101378.60;1674593;85;21771;-82
2022/11/11 06:06:00;;;;;;;65.22;36.38;;;;;;;5.87;94.90;101372.45;1674785;85;21522;-83
2022/11/11 06:09:24;;;;;;;53.28;34.35;;;;;;;6.10;93.58;101376.61;1685241;84;21201;-82
2022/11/11 06:13:09;;;;;;;58.95;34.58;;;;;;;5.90;94.06;101377.66;1702403;83;21204;-83
2022/11/11 06:16:31;;;;;;;56.58;33.35;;;;;;;5.81;94.33;101375.66;1699803;84;21218;-83
2022/11/11 06:19:55;;;;;;;56.42;35.10;;;;;;;5.53;95.50;101373.36;1702062;84;21225;-83
2022/11/11 06:23:19;;;;;;;55.48;32.38;;;;;;;5.53;95.84;101382.36;1699026;83;21761;-82
2022/11/11 06:26:43;;;;;;;53.78;32.60;;;;;;;5.71;95.67;101388.22;1690046;84;21214;-83
2022/11/11 06:30:07;;;;;;;50.73;33.15;;;;;;;5.92;95.45;101395.70;1681692;84;21206;-83
2022/11/11 06:33:32;;;;;;;46.18;27.82;;;;;;;6.21;94.84;101400.20;1672305;86;21171;-83
2022/11/11 06:37:03;;;;;;;40.58;25.27;;;;;;;6.40;94.61;101398.63;1672637;86;21765;-83
2022/11/11 06:40:27;;;;;;;38.02;24.63;;;;;;;6.49;94.53;101388.84;1673084;86;21243;-83
2022/11/11 06:43:50;;;;;;;36.03;23.05;;;;;;;6.79;93.74;101385.51;1691672;82;21795;-83
2022/11/11 06:47:14;;;;;;;33.55;21.77;;;;;;;7.04;92.89;101395.22;1696208;84;21163;-83
2022/11/11 06:50:35;;;;;;;33.25;20.50;;;;;;;7.28;92.10;101401.83;1707515;82;21211;-84
2022/11/11 06:53:52;;;;;;;29.48;19.65;;;;;;;7.35;91.97;101409.00;1694276;83;21744;-83
2022/11/11 06:57:16;;;;;;;31.48;18.98;;;;;;;7.65;91.26;101408.25;1724223;83;21278;-83
2022/11/11 07:00:39;;;;;;;32.28;18.77;;;;;;;7.73;90.41;101420.73;1715301;82;21746;-83
2022/11/11 07:03:56;;;;;;;28.47;15.93;;;;;;;8.01;89.11;101412.91;1674784;85;21203;-82
2022/11/11 07:07:19;;;;;;;22.25;15.43;;;;;;;8.05;88.21;101415.73;1706006;82;21185;-83
2022/11/11 07:10:43;;;;;;;22.35;14.65;;;;;;;8.17;86.45;101408.70;1709703;82;21268;-82
2022/11/11 07:14:07;;;;;;;27.10;15.15;;;;;;;8.15;85.79;101408.48;1706643;82;21152;-82
2022/11/11 07:17:31;;;;;;;25.55;15.93;;;;;;;8.15;84.94;101412.57;1697228;82;21185;-83
2022/11/11 07:20:55;;;;;;;29.80;16.67;;;;;;;8.02;85.14;101422.30;1698499;82;21228;-84
2022/11/11 07:24:17;;;;;;;29.07;14.93;;;;;;;8.15;84.94;101422.11;1695006;82;21764;-84
2022/11/11 07:27:48;;;;;;;23.75;14.70;;;;;;;8.59;83.46;101420.94;1700997;82;21210;-82
2022/11/11 07:31:13;;;;;;;22.35;15.25;;;;;;;8.61;82.90;101424.41;1724080;82;21211;-83
2022/11/11 07:34:36;;;;;;;21.82;13.55;;;;;;;8.72;82.91;101424.81;1710318;82;21751;-83
2022/11/11 07:38:00;;;;;;;26.60;16.12;;;;;;;9.01;81.21;101429.00;1706434;82;21162;-83
2022/11/11 07:41:24;;;;;;;27.98;17.62;;;;;;;8.93;81.28;101425.59;1723100;83;21213;-83
2022/11/11 07:44:47;;;;;;;27.30;17.20;;;;;;;9.29;79.45;101432.80;1703593;82;21238;-83
2022/11/11 07:48:11;;;;;;;40.00;16.77;;;;;;;9.43;79.14;101436.49;1711882;82;21788;-83
2022/11/11 07:51:34;;;;;;;29.27;14.05;;;;;;;9.66;78.21;101433.50;1710459;82;21249;-83
2022/11/11 07:54:58;;;;;;;23.47;14.50;;;;;;;9.65;77.53;101436.74;1710870;82;21723;-78
2022/11/11 07:58:21;;;;;;;24.32;15.40;;;;;;;9.71;77.24;101438.89;1699778;83;21254;-78
2022/11/11 08:01:46;;;;;;;25.12;16.55;;;;;;;9.76;76.83;101437.60;1708367;82;21193;-78
2022/11/11 08:05:10;;;;;;;19.62;14.58;;;;;;;10.01;75.66;101445.20;1704995;82;21180;-77
2022/11/11 08:08:27;;;;;;;26.25;16.30;;;;;;;10.01;75.35;101441.10;1702899;83;21150;-78
2022/11/11 08:15:35;;;;;;;25.52;15.75;;;;;;;9.60;75.79;101445.02;1711799;82;21289;-78
2022/11/11 08:18:59;;;;;;;23.07;14.98;;;;;;;9.77;75.32;101444.78;1699310;82;21244;-77
2022/11/11 08:22:24;;;;;;;23.62;15.30;;;;;;;9.83;74.94;101445.06;1713128;83;21162;-79
2022/11/11 08:25:41;;;;;;;20.80;14.70;;;;;;;10.00;74.28;101448.95;1715118;82;21228;-78
2022/11/11 08:28:52;;;;;;;21.80;13.98;;;;;;;10.21;73.49;101452.40;1718119;82;21242;-78
2022/11/11 08:32:17;;;;;;;19.50;12.70;;;;;;;9.92;74.00;101448.80;1707193;82;21265;-78
2022/11/11 08:35:40;;;;;;;17.07;11.38;;;;;;;9.83;74.65;101446.42;1734457;81;21236;-78
2022/11/11 08:39:04;;;;;;;24.30;13.48;;;;;;;10.35;73.14;101448.38;1733808;81;21263;-77
2022/11/11 08:42:29;;;;;;;23.75;14.30;;;;;;;10.47;72.35;101439.48;1733633;81;21804;-77
2022/11/11 08:45:53;;;;;;;24.00;14.15;;;;;;;10.60;71.45;101441.89;1734610;81;21228;-78
2022/11/11 08:49:17;;;;;;;24.35;14.80;;;;;;;10.45;72.06;101435.53;1731513;81;21207;-78
2022/11/11 08:52:40;;;;;;;19.90;13.25;;;;;;;10.13;72.57;101433.12;1736501;81;21233;-78
2022/11/11 08:56:03;;;;;;;20.43;13.45;;;;;;;10.08;72.83;101429.11;1733135;81;21154;-77
2022/11/11 08:59:27;;;;;;;21.65;12.33;;;;;;;10.14;72.49;101432.61;1735916;81;21206;-77
2022/11/11 09:02:44;;;;;;;22.10;13.38;;;;;;;10.38;72.04;101424.81;1737128;81;21537;-79
2022/11/11 09:06:08;;;;;;;21.25;13.90;;;;;;;10.32;71.61;101425.92;1737348;81;21218;-78
2022/11/11 09:09:31;;;;;;;25.68;15.23;;;;;;;10.42;71.78;101422.14;1725028;81;21235;-77
2022/11/11 09:12:54;;;;;;;25.17;14.87;;;;;;;10.44;71.77;101420.62;1731808;81;21226;-77
2022/11/11 09:16:18;;;;;;;25.72;15.70;;;;;;;10.56;71.38;101421.31;1743054;81;21230;-78
2022/11/11 09:19:42;;;;;;;18.98;13.08;;;;;;;10.68;70.67;101426.94;1732268;81;21176;-77
2022/11/11 09:23:06;;;;;;;24.00;13.70;;;;;;;10.65;70.65;101422.64;1732478;81;21223;-77
2022/11/11 09:26:30;;;;;;;22.87;14.00;;;;;;;10.61;71.03;101423.95;1729932;81;21195;-77
2022/11/11 09:29:54;;;;;;;26.17;15.70;;;;;;;10.77;70.47;101418.34;1730969;81;21189;-77
2022/11/11 09:33:19;;;;;;;37.60;16.90;;;;;;;10.84;69.80;101421.70;1727503;81;21232;-78
2022/11/11 09:36:44;;;;;;;27.15;17.37;;;;;;;10.80;70.26;101421.64;1730103;81;21163;-79
2022/11/11 09:40:09;;;;;;;22.65;15.15;;;;;;;10.70;70.33;101426.30;1729528;81;21196;-78
2022/11/11 09:43:48;;;;;;;26.05;15.68;;;;;;;9.96;72.59;101422.41;1689415;83;21207;-78
2022/11/11 09:47:46;;;;;;;20.40;13.75;;;;;;;10.04;73.02;101426.30;1728478;81;21209;-78
2022/11/11 09:51:10;;;;;;;18.05;13.03;;;;;;;10.05;72.92;101432.97;1731888;81;21747;-78
2022/11/11 09:54:49;;;;;;;28.35;14.23;;;;;;;9.97;73.08;101430.09;1730930;81;21232;-77
2022/11/11 09:58:23;;;;;;;20.68;13.95;;;;;;;10.27;72.27;101427.73;1731772;81;21211;-77
2022/11/11 10:02:03;;;;;;;23.42;14.00;;;;;;;9.92;72.62;101422.33;1731942;81;21169;-76
2022/11/11 10:05:42;;;;;;;20.75;12.40;;;;;;;10.22;72.09;101425.91;1730556;81;21243;-78
2022/11/11 10:09:31;;;;;;;20.75;12.33;;;;;;;10.21;72.28;101430.52;1700402;81;21193;-77
2022/11/11 10:13:02;;;;;;;21.97;12.70;;;;;;;10.38;71.50;101423.95;1728105;82;21283;-78
2022/11/11 10:16:41;;;;;;;21.62;12.18;;;;;;;10.56;71.21;101421.31;1729285;81;21826;-78
2022/11/11 10:20:27;;;;;;;20.02;13.20;;;;;;;10.77;70.84;101412.36;1700484;82;21568;-77
2022/11/11 10:23:54;;;;;;;23.02;13.03;;;;;;;10.79;70.35;101407.61;1724517;81;21740;-78
2022/11/11 10:27:25;;;;;;;22.85;11.30;;;;;;;10.78;70.57;101411.88;1726626;81;21185;-78
2022/11/11 10:30:48;;;;;;;22.85;12.95;;;;;;;10.89;69.84;101407.05;1758142;81;21769;-78
2022/11/11 10:34:17;;;;;;;19.35;11.93;;;;;;;11.12;69.20;101404.77;1719684;82;21277;-78
2022/11/11 10:37:50;;;;;;;19.57;13.08;;;;;;;10.99;69.60;101409.73;1728558;82;21214;-78
2022/11/11 10:41:29;;;;;;;20.48;12.47;;;;;;;10.90;69.86;101404.66;1732495;81;21242;-78
2022/11/11 10:44:53;;;;;;;20.12;13.05;;;;;;;11.12;69.14;101406.65;1719722;82;21196;-78
2022/11/11 10:48:22;;;;;;;20.68;12.88;;;;;;;11.05;69.17;101397.31;1700766;82;21235;-78
2022/11/11 10:51:53;;;;;;;19.98;12.75;;;;;;;11.24;68.77;101402.66;1708513;82;21190;-78
2022/11/11 10:55:20;;;;;;;21.85;13.28;;;;;;;11.25;68.84;101397.56;1734681;82;21213;-78
2022/11/11 10:58:45;;;;;;;23.18;13.50;;;;;;;11.19;68.72;101400.38;1737423;82;21195;-79
2022/11/11 11:02:17;;;;;;;35.75;17.32;;;;;;;11.36;68.37;101393.73;1736171;82;21703;-78
2022/11/11 11:06:15;;;;;;;25.35;13.75;;;;;;;11.41;68.03;101400.47;1712701;82;21789;-78
2022/11/11 11:10:07;;;;;;;26.82;13.95;;;;;;;11.35;68.41;101394.75;1732161;82;21236;-76
2022/11/11 11:13:48;;;;;;;22.37;13.65;;;;;;;11.34;68.20;101388.42;1727747;82;21167;-77
2022/11/11 11:17:32;;;;;;;17.70;12.78;;;;;;;11.33;68.15;101397.62;1730443;82;21708;-77
2022/11/11 11:21:07;;;;;;;21.57;13.38;;;;;;;11.27;68.76;101390.04;1732447;82;21746;-77
2022/11/11 11:24:40;;;;;;;21.45;14.00;;;;;;;11.16;69.54;101384.80;1736276;82;21192;-78
2022/11/11 11:28:10;;;;;;;22.37;15.15;;;;;;;11.06;69.49;101384.00;1736791;82;21694;-78
2022/11/11 11:31:21;;;;;;;28.38;15.38;;;;;;;11.25;69.02;101394.31;1734760;82;21168;-78
2022/11/11 11:34:55;;;;;;;26.55;14.10;;;;;;;11.31;69.17;101394.70;1713054;82;21185;-78
2022/11/11 11:38:19;;;;;;;25.45;13.95;;;;;;;11.31;68.79;101401.56;1725879;83;21173;-78
2022/11/11 11:41:50;;;;;;;21.70;13.98;;;;;;;11.58;67.77;101402.02;1727196;81;21172;-77
2022/11/11 11:45:31;;;;;;;24.70;13.85;;;;;;;11.90;66.56;101400.98;1731135;81;21206;-77
2022/11/11 11:49:22;;;;;;;24.20;14.10;;;;;;;11.57;67.59;101397.52;1703346;81;21706;-78
2022/11/11 11:52:37;;;;;;;20.10;12.47;;;;;;;11.60;67.22;101394.48;1723559;81;21161;-78
2022/11/11 11:56:34;;;;;;;21.12;13.83;;;;;;;11.86;66.78;101391.86;1723894;83;21189;-78
2022/11/11 12:00:11;;;;;;;19.67;12.43;;;;;;;11.83;66.88;101395.76;1733650;81;21181;-78
2022/11/11 12:03:55;;;;;;;23.50;13.88;;;;;;;11.79;66.88;101394.31;1732638;82;21178;-78
2022/11/11 12:07:50;;;;;;;25.77;14.68;;;;;;;11.24;68.14;101398.55;1725818;82;21704;-78
2022/11/11 12:11:39;;;;;;;26.17;14.70;;;;;;;11.40;68.09;101397.89;1703306;84;21194;-77
2022/11/11 12:15:48;;;;;;;36.35;19.32;;;;;;;11.33;68.20;101401.73;1707434;82;21196;-82
2022/11/11 12:19:37;;;;;;;26.65;17.02;;;;;;;11.04;68.92;101397.82;1723076;83;21207;-82
2022/11/11 12:23:31;;;;;;;64.97;26.27;;;;;;;10.91;69.85;101403.64;1702317;83;21218;-83
2022/11/11 12:27:13;;;;;;;34.55;17.27;;;;;;;10.98;69.48;101399.30;1701666;83;21223;-83
2022/11/11 12:30:36;;;;;;;34.60;16.55;;;;;;;11.08;69.21;101403.34;1696965;82;21252;-83
2022/11/11 12:34:03;;;;;;;25.75;15.48;;;;;;;10.94;69.46;101406.09;1695090;82;21201;-82
2022/11/11 12:37:33;;;;;;;19.85;14.05;;;;;;;10.96;69.80;101408.19;1616885;87;21280;-82
2022/11/11 12:41:34;;;;;;;25.52;14.75;;;;;;;10.58;70.60;101407.83;1613597;87;22133;-83
2022/11/11 12:45:29;;;;;;;40.23;21.93;;;;;;;10.77;70.22;101404.66;1670589;85;22428;-82
2022/11/11 12:49:08;;;;;;;28.23;16.80;;;;;;;10.52;71.07;101401.59;1704905;84;21750;-82
2022/11/11 12:52:45;;;;;;;26.77;16.42;;;;;;;10.57;71.12;101412.95;1702572;82;21262;-81
2022/11/11 12:56:59;;;;;;;28.80;17.23;;;;;;;10.74;70.79;101404.47;1682704;83;21235;-81
2022/11/11 13:00:31;;;;;;;45.52;22.07;;;;;;;10.50;71.58;101410.47;1640241;87;21271;-82
2022/11/11 13:04:42;;;;;;;55.40;25.90;;;;;;;10.40;71.88;101412.38;1618717;88;21273;-82
2022/11/11 13:08:12;;;;;;;;;;;;;;;10.60;71.17;101406.33;1624356;87;21207;-82
2022/11/11 13:11:52;;;;;;;55.67;28.75;;;;;;;10.58;71.16;101411.93;1607106;87;20243;-82
2022/11/11 13:15:31;;;;;;;37.25;20.55;;;;;;;10.45;71.43;101410.92;1618630;88;22494;-82
2022/11/11 13:19:06;;;;;;;29.92;17.10;;;;;;;10.49;71.35;101414.19;1630013;87;21272;-82
2022/11/11 13:22:34;;;;;;;30.25;16.80;;;;;;;10.40;71.52;101424.17;1618443;87;21216;-82
2022/11/11 13:25:56;;;;;;;26.75;15.50;;;;;;;10.39;71.56;101422.43;1618554;87;21221;-83
2022/11/11 13:29:11;;;;;;;26.00;16.15;;;;;;;10.32;71.92;101422.68;1603686;88;21284;-82
2022/11/11 13:32:17;;;;;;;27.02;18.07;;;;;;;10.22;72.06;101417.71;1611061;87;21233;-81
2022/11/11 13:35:35;;;;;;;35.98;19.37;;;;;;;10.45;71.62;101410.06;1618572;87;21232;-81
2022/11/11 13:39:05;;;;;;;56.65;29.23;;;;;;;10.41;71.61;101420.42;1606324;87;21228;-82
2022/11/11 13:42:34;;;;;;;98.92;46.68;;;;;;;10.04;72.69;101428.52;1618975;87;21229;-81
2022/11/11 13:46:00;;;;;;;57.20;27.95;;;;;;;9.86;73.70;101432.48;1642942;87;21203;-81
2022/11/11 13:49:32;;;;;;;169.82;78.50;;;;;;;9.68;74.57;101428.75;1615753;87;21189;-82
2022/11/11 13:53:13;;;;;;;245.65;114.55;;;;;;;9.99;73.94;101431.69;1625576;87;21208;-81
2022/11/11 13:56:42;;;;;;;;;;;;;;;9.56;75.31;101423.94;1640629;85;21278;-82
2022/11/11 14:00:12;;;;;;;113.05;51.05;;;;;;;9.61;75.43;101422.14;1614174;87;20682;-81
2022/11/11 14:03:40;;;;;;;85.83;42.25;;;;;;;9.51;75.64;101419.41;1610620;88;21241;-81
2022/11/11 14:07:05;;;;;;;80.35;37.45;;;;;;;9.68;75.38;101423.28;1627669;87;21246;-81
2022/11/11 14:10:33;;;;;;;99.30;45.63;;;;;;;9.51;75.58;101419.92;1637972;87;21224;-82
2022/11/11 14:13:57;;;;;;;87.10;40.15;;;;;;;9.42;76.16;101418.89;1639079;86;21507;-82
2022/11/11 14:17:21;;;;;;;67.00;33.75;;;;;;;9.35;76.37;101424.04;1676692;85;21204;-83
2022/11/11 14:20:49;;;;;;;57.88;31.12;;;;;;;9.28;77.09;101424.27;1677968;85;21849;-83
2022/11/11 14:24:13;;;;;;;66.37;35.30;;;;;;;9.35;77.13;101424.04;1650012;86;21240;-82
2022/11/11 14:27:31;;;;;;;98.95;53.80;;;;;;;9.25;77.06;101423.16;1625028;88;21285;-83
2022/11/11 14:30:47;;;;;;;85.70;52.00;;;;;;;9.15;77.67;101419.56;1622096;88;21227;-82
2022/11/11 14:34:23;;;;;;;124.70;72.00;;;;;;;9.21;77.39;101434.00;1621352;87;21239;-82
2022/11/11 14:38:15;;;;;;;103.32;62.93;;;;;;;9.23;77.24;101437.98;1621349;88;21295;-82
2022/11/11 14:41:55;;;;;;;65.15;33.55;;;;;;;9.35;76.77;101440.42;1622382;87;21207;-84
2022/11/11 14:45:41;;;;;;;46.40;26.17;;;;;;;9.13;77.63;101444.27;1622964;88;21236;-81
2022/11/11 14:48:59;;;;;;;54.27;26.85;;;;;;;9.04;78.06;101441.02;1621385;87;21849;-82
2022/11/11 14:52:10;;;;;;;46.98;25.08;;;;;;;8.96;78.35;101438.11;1620207;88;21231;-82
2022/11/11 14:55:41;;;;;;;51.20;26.48;;;;;;;9.01;78.34;101440.42;1621566;88;21247;-83
2022/11/11 14:59:02;;;;;;;53.35;25.25;;;;;;;9.08;78.05;101441.58;1620428;88;21247;-82
2022/11/11 15:02:39;;;;;;;48.55;25.43;;;;;;;8.84;78.39;101448.75;1620903;88;21243;-83
2022/11/11 15:06:21;;;;;;;51.20;26.97;;;;;;;8.66;79.13;101452.64;1620990;88;21287;-83
2022/11/11 15:09:59;;;;;;;45.28;25.48;;;;;;;8.65;78.84;101452.25;1609264;88;21259;-82
2022/11/11 15:13:37;;;;;;;44.93;26.40;;;;;;;8.55;79.26;101456.80;1621883;88;21207;-81
2022/11/11 15:17:53;;;;;;;43.08;26.57;;;;;;;8.25;80.03;101451.65;1621856;88;21349;-81
2022/11/11 15:21:21;;;;;;;58.78;31.50;;;;;;;8.29;79.84;101453.12;1624984;87;21240;-81
2022/11/11 15:25:22;;;;;;;93.90;42.20;;;;;;;8.34;79.70;101460.39;1649721;86;21227;-82
2022/11/11 15:29:14;;;;;;;95.50;52.15;;;;;;;8.22;79.88;101462.81;1649920;86;21207;-83
2022/11/11 15:33:07;;;;;;;48.98;27.00;;;;;;;7.71;80.95;101470.86;1648993;86;21231;-81
2022/11/11 15:36:56;;;;;;;48.40;26.82;;;;;;;7.62;82.36;101479.30;1648607;86;21814;-81
2022/11/11 15:40:31;;;;;;;48.20;27.15;;;;;;;7.69;82.40;101488.70;1649781;86;21251;-83
2022/11/11 15:43:54;;;;;;;46.63;25.62;;;;;;;7.66;83.10;101491.17;1650051;86;21766;-82
2022/11/11 15:47:15;;;;;;;65.25;34.08;;;;;;;7.36;84.22;101483.72;1649716;86;21211;-82
2022/11/11 15:50:39;;;;;;;64.70;32.15;;;;;;;7.33;84.84;101483.95;1649875;86;21216;-82
2022/11/11 15:54:03;;;;;;;;;;;;;;;7.34;84.67;101488.91;1652259;86;21255;-82
2022/11/11 15:57:39;;;;;;;77.37;39.63;;;;;;;7.38;84.52;101496.69;1622783;88;20302;-81
2022/11/11 16:01:04;;;;;;;82.05;44.00;;;;;;;7.30;84.86;101498.34;1632937;87;21250;-82
2022/11/11 16:04:28;;;;;;;65.35;37.03;;;;;;;7.18;85.40;101499.70;1633860;87;21215;-82
2022/11/11 16:07:53;;;;;;;51.53;30.90;;;;;;;7.19;85.62;101503.28;1634058;87;21243;-82
2022/11/11 16:11:19;;;;;;;52.03;29.32;;;;;;;7.16;86.02;101508.50;1633945;87;21841;-81
2022/11/11 16:14:48;;;;;;;110.65;49.73;;;;;;;7.21;86.32;101509.98;1634046;87;21223;-81
2022/11/11 16:18:14;;;;;;;80.70;38.95;;;;;;;7.27;86.26;101503.53;1649072;87;21768;-81
2022/11/11 16:21:48;;;;;;;67.97;31.20;;;;;;;7.27;86.11;101502.16;1644722;87;21763;-82
2022/11/11 16:25:12;;;;;;;78.40;39.78;;;;;;;7.24;85.96;101509.20;1646974;87;21218;-81
2022/11/11 16:28:37;;;;;;;81.50;40.92;;;;;;;7.27;85.70;101511.69;1710077;84;21184;-81
2022/11/11 16:32:02;;;;;;;90.92;44.38;;;;;;;7.24;86.11;101507.84;1709071;84;21791;-82
2022/11/11 16:35:38;;;;;;;77.60;33.40;;;;;;;7.35;86.00;101510.58;1710034;84;21220;-81
2022/11/11 16:39:01;;;;;;;71.92;31.37;;;;;;;7.42;85.84;101504.11;1710124;84;21202;-81
2022/11/11 16:42:36;;;;;;;51.40;28.60;;;;;;;7.42;85.78;101503.61;1709769;84;21774;-81
2022/11/11 16:46:12;;;;;;;76.95;42.80;;;;;;;7.36;86.07;101505.98;1709797;84;21220;-81
2022/11/11 16:49:48;;;;;;;74.50;38.30;;;;;;;7.24;86.59;101506.48;1710151;84;21207;-81
2022/11/11 16:53:12;;;;;;;49.98;31.40;;;;;;;7.20;86.99;101506.39;1709439;84;21817;-82
2022/11/11 16:56:29;;;;;;;49.93;29.98;;;;;;;7.17;87.27;101509.36;1710139;84;21793;-82
2022/11/11 16:59:49;;;;;;;68.40;30.17;;;;;;;7.47;86.70;101507.81;1710188;84;21247;-83
2022/11/11 17:03:16;;;;;;;54.23;30.68;;;;;;;7.41;87.04;101499.67;1709600;84;21829;-82
2022/11/11 17:07:02;;;;;;;55.73;31.20;;;;;;;7.34;87.01;101500.69;1708933;84;21219;-81
2022/11/11 17:10:27;;;;;;;334.80;164.55;;;;;;;7.35;86.98;101510.58;1710149;84;21199;-82
2022/11/11 17:13:34;;;;;;;165.28;80.07;;;;;;;7.50;86.57;101515.74;1709171;84;21256;-82